sensor_id;sensor_type;location;lat;lon;timestamp;temperature;humidity
23267;DHT22;11802;53.160;8.214;2023-09-19T00:01:42;16.20;99.90
23267;DHT22;11802;53.160;8.214;2023-09-19T00:04:09;16.20;99.90
23267;DHT22;11802;53.160;8.214;2023-09-19T00:06:36;16.20;99.90
23267;DHT22;11802;53.160;8.214;2023-09-19T00:09:02;16.10;99.90
23267;DHT22;11802;53.160;8.214;2023-09-19T00:11:28;16.10;99.90
23267;DHT22;11802;53.160;8.214;2023-09-19T00:13:54;16.10;99.90
23267;DHT22;11802;53.160;8.214;2023-09-19T00:16:19;16.00;99.90
23267;DHT22;11802;53.160;8.214;2023-09-19T00:18:45;16.00;99.90
23267;DHT22;11802;53.160;8.214;2023-09-19T00:21:11;16.00;99.90
23267;DHT22;11802;53.160;8.214;2023-09-19T00:23:38;16.00;99.90
23267;DHT22;11802;53.160;8.214;2023-09-19T00:26:03;16.00;99.90
23267;DHT22;11802;53.160;8.214;2023-09-19T00:28:29;16.00;99.90
23267;DHT22;11802;53.160;8.214;2023-09-19T00:30:56;16.00;99.90
23267;DHT22;11802;53.160;8.214;2023-09-19T00:33:22;16.00;99.90
23267;DHT22;11802;53.160;8.214;2023-09-19T00:35:51;16.00;99.90
23267;DHT22;11802;53.160;8.214;2023-09-19T00:38:18;16.00;99.90
23267;DHT22;11802;53.160;8.214;2023-09-19T00:40:47;15.90;99.90
23267;DHT22;11802;53.160;8.214;2023-09-19T00:43:13;15.90;99.90
23267;DHT22;11802;53.160;8.214;2023-09-19T00:45:43;15.90;99.90
23267;DHT22;11802;53.160;8.214;2023-09-19T00:48:09;15.90;99.90
23267;DHT22;11802;53.160;8.214;2023-09-19T00:50:35;15.90;99.90
23267;DHT22;11802;53.160;8.214;2023-09-19T00:53:02;15.90;99.90
23267;DHT22;11802;53.160;8.214;2023-09-19T00:55:33;15.90;99.90
23267;DHT22;11802;53.160;8.214;2023-09-19T00:57:59;15.90;99.90
23267;DHT22;11802;53.160;8.214;2023-09-19T01:00:25;15.80;99.90
23267;DHT22;11802;53.160;8.214;2023-09-19T01:02:51;15.80;99.90
23267;DHT22;11802;53.160;8.214;2023-09-19T01:05:17;15.80;99.90
23267;DHT22;11802;53.160;8.214;2023-09-19T01:07:43;15.80;99.90
23267;DHT22;11802;53.160;8.214;2023-09-19T01:10:12;15.80;99.90
23267;DHT22;11802;53.160;8.214;2023-09-19T01:13:03;15.80;99.90
23267;DHT22;11802;53.160;8.214;2023-09-19T01:18:27;15.80;99.90
23267;DHT22;11802;53.160;8.214;2023-09-19T01:21:27;15.80;99.90
23267;DHT22;11802;53.160;8.214;2023-09-19T01:29:42;15.70;99.90
23267;DHT22;11802;53.160;8.214;2023-09-19T01:32:11;15.70;99.90
23267;DHT22;11802;53.160;8.214;2023-09-19T01:34:51;15.70;99.90
23267;DHT22;11802;53.160;8.214;2023-09-19T01:37:20;15.60;99.90
23267;DHT22;11802;53.160;8.214;2023-09-19T01:39:51;15.60;99.90
23267;DHT22;11802;53.160;8.214;2023-09-19T01:42:25;15.60;99.90
23267;DHT22;11802;53.160;8.214;2023-09-19T01:45:03;15.50;99.90
23267;DHT22;11802;53.160;8.214;2023-09-19T01:47:50;15.40;99.90
23267;DHT22;11802;53.160;8.214;2023-09-19T01:52:57;15.20;99.90
23267;DHT22;11802;53.160;8.214;2023-09-19T01:55:28;15.20;99.90
23267;DHT22;11802;53.160;8.214;2023-09-19T01:58:04;15.20;99.90
23267;DHT22;11802;53.160;8.214;2023-09-19T02:00:34;15.10;99.90
23267;DHT22;11802;53.160;8.214;2023-09-19T02:03:00;15.10;99.90
23267;DHT22;11802;53.160;8.214;2023-09-19T02:05:27;15.00;99.90
23267;DHT22;11802;53.160;8.214;2023-09-19T02:07:53;15.00;99.90
23267;DHT22;11802;53.160;8.214;2023-09-19T02:10:19;14.90;99.90
23267;DHT22;11802;53.160;8.214;2023-09-19T02:12:45;14.80;99.90
23267;DHT22;11802;53.160;8.214;2023-09-19T02:15:10;14.80;99.90
23267;DHT22;11802;53.160;8.214;2023-09-19T02:17:36;14.70;99.90
23267;DHT22;11802;53.160;8.214;2023-09-19T02:20:01;14.60;99.90
23267;DHT22;11802;53.160;8.214;2023-09-19T02:22:29;14.60;99.90
23267;DHT22;11802;53.160;8.214;2023-09-19T02:24:55;14.60;99.90
23267;DHT22;11802;53.160;8.214;2023-09-19T02:27:23;14.60;99.90
23267;DHT22;11802;53.160;8.214;2023-09-19T02:29:49;14.50;99.90
23267;DHT22;11802;53.160;8.214;2023-09-19T02:32:15;14.50;99.90
23267;DHT22;11802;53.160;8.214;2023-09-19T02:34:43;14.40;99.90
23267;DHT22;11802;53.160;8.214;2023-09-19T02:37:10;14.30;99.90
23267;DHT22;11802;53.160;8.214;2023-09-19T02:39:35;14.30;99.90
23267;DHT22;11802;53.160;8.214;2023-09-19T02:42:01;14.20;99.90
23267;DHT22;11802;53.160;8.214;2023-09-19T02:44:29;14.20;99.90
23267;DHT22;11802;53.160;8.214;2023-09-19T02:46:55;14.20;99.90
23267;DHT22;11802;53.160;8.214;2023-09-19T02:49:20;14.10;99.90
23267;DHT22;11802;53.160;8.214;2023-09-19T02:51:46;14.00;99.90
23267;DHT22;11802;53.160;8.214;2023-09-19T02:54:12;14.00;99.90
23267;DHT22;11802;53.160;8.214;2023-09-19T02:56:39;13.90;99.90
23267;DHT22;11802;53.160;8.214;2023-09-19T02:59:05;13.90;99.90
23267;DHT22;11802;53.160;8.214;2023-09-19T03:01:31;13.90;99.90
23267;DHT22;11802;53.160;8.214;2023-09-19T03:03:57;13.80;99.90
23267;DHT22;11802;53.160;8.214;2023-09-19T03:06:23;13.80;99.90
23267;DHT22;11802;53.160;8.214;2023-09-19T03:08:49;13.80;99.90
23267;DHT22;11802;53.160;8.214;2023-09-19T03:11:17;13.80;99.90
23267;DHT22;11802;53.160;8.214;2023-09-19T03:13:50;13.80;99.90
23267;DHT22;11802;53.160;8.214;2023-09-19T03:16:16;13.80;99.90
23267;DHT22;11802;53.160;8.214;2023-09-19T03:18:41;13.80;99.90
23267;DHT22;11802;53.160;8.214;2023-09-19T03:21:08;13.80;99.90
23267;DHT22;11802;53.160;8.214;2023-09-19T03:23:33;13.80;99.90
23267;DHT22;11802;53.160;8.214;2023-09-19T03:25:59;13.70;99.90
23267;DHT22;11802;53.160;8.214;2023-09-19T03:28:25;13.70;99.90
23267;DHT22;11802;53.160;8.214;2023-09-19T03:31:04;13.70;99.90
23267;DHT22;11802;53.160;8.214;2023-09-19T03:33:30;13.70;99.90
23267;DHT22;11802;53.160;8.214;2023-09-19T03:36:00;13.70;99.90
23267;DHT22;11802;53.160;8.214;2023-09-19T03:38:26;13.70;99.90
23267;DHT22;11802;53.160;8.214;2023-09-19T03:40:53;13.70;99.90
23267;DHT22;11802;53.160;8.214;2023-09-19T03:43:18;13.60;99.90
23267;DHT22;11802;53.160;8.214;2023-09-19T03:45:44;13.60;99.90
23267;DHT22;11802;53.160;8.214;2023-09-19T03:48:13;13.60;99.90
23267;DHT22;11802;53.160;8.214;2023-09-19T03:50:39;13.60;99.90
23267;DHT22;11802;53.160;8.214;2023-09-19T03:53:04;13.50;99.90
23267;DHT22;11802;53.160;8.214;2023-09-19T03:55:31;13.50;99.90
23267;DHT22;11802;53.160;8.214;2023-09-19T03:57:57;13.50;99.90
23267;DHT22;11802;53.160;8.214;2023-09-19T04:00:23;13.60;99.90
23267;DHT22;11802;53.160;8.214;2023-09-19T04:02:52;13.60;99.90
23267;DHT22;11802;53.160;8.214;2023-09-19T04:05:18;13.60;99.90
23267;DHT22;11802;53.160;8.214;2023-09-19T04:07:44;13.60;99.90
23267;DHT22;11802;53.160;8.214;2023-09-19T04:10:09;13.50;99.90
23267;DHT22;11802;53.160;8.214;2023-09-19T04:12:37;13.50;99.90
23267;DHT22;11802;53.160;8.214;2023-09-19T04:15:04;13.50;99.90
23267;DHT22;11802;53.160;8.214;2023-09-19T04:17:30;13.50;99.90
23267;DHT22;11802;53.160;8.214;2023-09-19T04:19:58;13.50;99.90
23267;DHT22;11802;53.160;8.214;2023-09-19T04:22:23;13.50;99.90
23267;DHT22;11802;53.160;8.214;2023-09-19T04:24:49;13.50;99.90
23267;DHT22;11802;53.160;8.214;2023-09-19T04:27:14;13.50;99.90
23267;DHT22;11802;53.160;8.214;2023-09-19T04:29:40;13.50;99.90
23267;DHT22;11802;53.160;8.214;2023-09-19T04:32:07;13.50;99.90
23267;DHT22;11802;53.160;8.214;2023-09-19T04:34:33;13.40;99.90
23267;DHT22;11802;53.160;8.214;2023-09-19T04:36:59;13.40;99.90
23267;DHT22;11802;53.160;8.214;2023-09-19T04:39:26;13.40;99.90
23267;DHT22;11802;53.160;8.214;2023-09-19T04:41:52;13.40;99.90
23267;DHT22;11802;53.160;8.214;2023-09-19T04:44:18;13.40;99.90
23267;DHT22;11802;53.160;8.214;2023-09-19T04:46:44;13.30;99.90
23267;DHT22;11802;53.160;8.214;2023-09-19T04:49:10;13.30;99.90
23267;DHT22;11802;53.160;8.214;2023-09-19T04:51:36;13.30;99.90
23267;DHT22;11802;53.160;8.214;2023-09-19T04:54:02;13.30;99.90
23267;DHT22;11802;53.160;8.214;2023-09-19T04:56:28;13.30;99.90
23267;DHT22;11802;53.160;8.214;2023-09-19T04:58:57;13.30;99.90
23267;DHT22;11802;53.160;8.214;2023-09-19T05:01:24;13.30;99.90
23267;DHT22;11802;53.160;8.214;2023-09-19T05:03:49;13.30;99.90
23267;DHT22;11802;53.160;8.214;2023-09-19T05:06:21;13.30;99.90
23267;DHT22;11802;53.160;8.214;2023-09-19T05:08:50;13.30;99.90
23267;DHT22;11802;53.160;8.214;2023-09-19T05:11:21;13.30;99.90
23267;DHT22;11802;53.160;8.214;2023-09-19T05:13:47;13.40;99.90
23267;DHT22;11802;53.160;8.214;2023-09-19T05:16:12;13.40;99.90
23267;DHT22;11802;53.160;8.214;2023-09-19T05:18:38;13.40;99.90
23267;DHT22;11802;53.160;8.214;2023-09-19T05:21:03;13.40;99.90
23267;DHT22;11802;53.160;8.214;2023-09-19T05:23:29;13.50;99.90
23267;DHT22;11802;53.160;8.214;2023-09-19T05:25:55;13.60;99.90
23267;DHT22;11802;53.160;8.214;2023-09-19T05:28:22;13.60;99.90
23267;DHT22;11802;53.160;8.214;2023-09-19T05:30:48;13.60;99.90
23267;DHT22;11802;53.160;8.214;2023-09-19T05:33:14;13.70;99.90
23267;DHT22;11802;53.160;8.214;2023-09-19T05:35:40;13.70;99.90
23267;DHT22;11802;53.160;8.214;2023-09-19T05:38:07;13.80;99.90
23267;DHT22;11802;53.160;8.214;2023-09-19T05:40:34;13.80;99.90
23267;DHT22;11802;53.160;8.214;2023-09-19T05:43:00;13.80;99.90
23267;DHT22;11802;53.160;8.214;2023-09-19T05:45:27;13.90;99.90
23267;DHT22;11802;53.160;8.214;2023-09-19T05:47:53;13.80;99.90
23267;DHT22;11802;53.160;8.214;2023-09-19T05:50:29;13.90;99.90
23267;DHT22;11802;53.160;8.214;2023-09-19T05:52:55;13.90;99.90
23267;DHT22;11802;53.160;8.214;2023-09-19T05:55:24;14.10;99.90
23267;DHT22;11802;53.160;8.214;2023-09-19T05:57:53;14.00;99.90
23267;DHT22;11802;53.160;8.214;2023-09-19T06:00:20;14.00;99.90
23267;DHT22;11802;53.160;8.214;2023-09-19T06:02:51;14.10;99.90
23267;DHT22;11802;53.160;8.214;2023-09-19T06:05:17;14.10;99.90
23267;DHT22;11802;53.160;8.214;2023-09-19T06:07:43;14.20;99.90
23267;DHT22;11802;53.160;8.214;2023-09-19T06:10:09;14.20;99.90
23267;DHT22;11802;53.160;8.214;2023-09-19T06:12:44;14.30;99.90
23267;DHT22;11802;53.160;8.214;2023-09-19T06:15:11;14.30;99.90
23267;DHT22;11802;53.160;8.214;2023-09-19T06:17:49;14.30;99.90
23267;DHT22;11802;53.160;8.214;2023-09-19T06:20:15;14.30;99.90
23267;DHT22;11802;53.160;8.214;2023-09-19T06:22:42;14.40;99.90
23267;DHT22;11802;53.160;8.214;2023-09-19T06:25:12;14.40;99.90
23267;DHT22;11802;53.160;8.214;2023-09-19T06:27:47;14.40;99.90
23267;DHT22;11802;53.160;8.214;2023-09-19T06:30:14;14.30;99.90
23267;DHT22;11802;53.160;8.214;2023-09-19T06:32:40;14.30;99.90
23267;DHT22;11802;53.160;8.214;2023-09-19T06:35:11;14.30;99.90
23267;DHT22;11802;53.160;8.214;2023-09-19T06:40:20;14.30;99.90
23267;DHT22;11802;53.160;8.214;2023-09-19T06:42:49;14.40;99.90
23267;DHT22;11802;53.160;8.214;2023-09-19T06:45:15;14.30;99.90
23267;DHT22;11802;53.160;8.214;2023-09-19T06:47:44;14.40;99.90
23267;DHT22;11802;53.160;8.214;2023-09-19T06:50:11;14.40;99.90
23267;DHT22;11802;53.160;8.214;2023-09-19T06:52:41;14.50;99.90
23267;DHT22;11802;53.160;8.214;2023-09-19T06:55:07;14.50;99.90
23267;DHT22;11802;53.160;8.214;2023-09-19T06:57:32;14.50;99.90
23267;DHT22;11802;53.160;8.214;2023-09-19T06:59:58;14.60;99.90
23267;DHT22;11802;53.160;8.214;2023-09-19T07:02:23;14.80;99.90
23267;DHT22;11802;53.160;8.214;2023-09-19T07:04:49;15.10;99.90
23267;DHT22;11802;53.160;8.214;2023-09-19T07:07:15;15.90;99.90
23267;DHT22;11802;53.160;8.214;2023-09-19T07:09:41;16.60;99.90
23267;DHT22;11802;53.160;8.214;2023-09-19T07:12:07;16.60;99.90
23267;DHT22;11802;53.160;8.214;2023-09-19T07:14:34;16.50;99.90
23267;DHT22;11802;53.160;8.214;2023-09-19T07:17:00;16.40;99.90
23267;DHT22;11802;53.160;8.214;2023-09-19T07:19:26;16.40;99.90
23267;DHT22;11802;53.160;8.214;2023-09-19T07:21:55;16.60;99.90
23267;DHT22;11802;53.160;8.214;2023-09-19T07:24:21;16.90;99.90
23267;DHT22;11802;53.160;8.214;2023-09-19T07:26:49;17.30;99.90
23267;DHT22;11802;53.160;8.214;2023-09-19T07:29:16;17.50;99.90
23267;DHT22;11802;53.160;8.214;2023-09-19T07:31:51;18.00;99.90
23267;DHT22;11802;53.160;8.214;2023-09-19T07:34:17;18.40;99.90
23267;DHT22;11802;53.160;8.214;2023-09-19T07:36:46;18.60;1.00
23267;DHT22;11802;53.160;8.214;2023-09-19T07:39:13;18.30;99.90
23267;DHT22;11802;53.160;8.214;2023-09-19T07:41:39;18.60;1.00
23267;DHT22;11802;53.160;8.214;2023-09-19T07:44:05;18.30;99.90
23267;DHT22;11802;53.160;8.214;2023-09-19T07:46:31;18.60;1.00
23267;DHT22;11802;53.160;8.214;2023-09-19T07:48:57;19.10;99.90
23267;DHT22;11802;53.160;8.214;2023-09-19T07:51:23;19.80;1.00
23267;DHT22;11802;53.160;8.214;2023-09-19T07:53:49;20.10;1.00
23267;DHT22;11802;53.160;8.214;2023-09-19T07:56:14;20.20;1.00
23267;DHT22;11802;53.160;8.214;2023-09-19T07:58:40;20.10;1.00
23267;DHT22;11802;53.160;8.214;2023-09-19T08:01:09;20.00;1.00
23267;DHT22;11802;53.160;8.214;2023-09-19T08:03:36;19.70;1.00
23267;DHT22;11802;53.160;8.214;2023-09-19T08:06:09;19.70;99.90
23267;DHT22;11802;53.160;8.214;2023-09-19T08:08:36;19.60;1.00
23267;DHT22;11802;53.160;8.214;2023-09-19T08:11:03;19.90;99.90
23267;DHT22;11802;53.160;8.214;2023-09-19T08:13:36;19.20;1.00
23267;DHT22;11802;53.160;8.214;2023-09-19T08:16:03;19.50;1.00
23267;DHT22;11802;53.160;8.214;2023-09-19T08:18:29;20.10;99.90
23267;DHT22;11802;53.160;8.214;2023-09-19T08:20:55;20.10;1.00
23267;DHT22;11802;53.160;8.214;2023-09-19T08:23:24;20.30;99.90
23267;DHT22;11802;53.160;8.214;2023-09-19T08:25:49;20.40;99.90
23267;DHT22;11802;53.160;8.214;2023-09-19T08:28:15;20.80;1.00
23267;DHT22;11802;53.160;8.214;2023-09-19T08:30:45;21.50;16.00
23267;DHT22;11802;53.160;8.214;2023-09-19T08:33:11;21.70;1.00
23267;DHT22;11802;53.160;8.214;2023-09-19T08:35:37;22.20;1.00
23267;DHT22;11802;53.160;8.214;2023-09-19T08:38:05;22.30;99.90
23267;DHT22;11802;53.160;8.214;2023-09-19T08:40:32;22.00;99.90
23267;DHT22;11802;53.160;8.214;2023-09-19T08:42:59;21.40;99.90
23267;DHT22;11802;53.160;8.214;2023-09-19T08:45:26;21.20;99.90
23267;DHT22;11802;53.160;8.214;2023-09-19T08:48:10;20.70;1.00
23267;DHT22;11802;53.160;8.214;2023-09-19T08:51:03;20.70;1.00
23267;DHT22;11802;53.160;8.214;2023-09-19T08:53:42;21.10;1.00
23267;DHT22;11802;53.160;8.214;2023-09-19T08:56:12;21.10;1.00
23267;DHT22;11802;53.160;8.214;2023-09-19T08:58:50;21.20;99.90
23267;DHT22;11802;53.160;8.214;2023-09-19T09:01:19;21.50;99.90
23267;DHT22;11802;53.160;8.214;2023-09-19T09:03:54;20.70;1.00
23267;DHT22;11802;53.160;8.214;2023-09-19T09:06:21;20.70;1.00
23267;DHT22;11802;53.160;8.214;2023-09-19T09:08:47;20.50;1.00
23267;DHT22;11802;53.160;8.214;2023-09-19T09:11:13;20.70;1.00
23267;DHT22;11802;53.160;8.214;2023-09-19T09:13:40;21.20;1.00
23267;DHT22;11802;53.160;8.214;2023-09-19T09:16:09;20.70;99.90
23267;DHT22;11802;53.160;8.214;2023-09-19T09:18:36;20.00;1.00
23267;DHT22;11802;53.160;8.214;2023-09-19T09:21:02;19.70;1.00
23267;DHT22;11802;53.160;8.214;2023-09-19T09:23:30;19.20;99.90
23267;DHT22;11802;53.160;8.214;2023-09-19T09:26:00;19.20;1.00
23267;DHT22;11802;53.160;8.214;2023-09-19T09:28:53;19.00;1.00
23267;DHT22;11802;53.160;8.214;2023-09-19T09:31:27;19.10;1.00
23267;DHT22;11802;53.160;8.214;2023-09-19T09:33:54;18.90;99.90
23267;DHT22;11802;53.160;8.214;2023-09-19T09:36:37;18.80;1.00
23267;DHT22;11802;53.160;8.214;2023-09-19T09:39:03;18.90;99.90
23267;DHT22;11802;53.160;8.214;2023-09-19T09:41:41;19.30;99.90
23267;DHT22;11802;53.160;8.214;2023-09-19T09:44:16;19.10;99.90
23267;DHT22;11802;53.160;8.214;2023-09-19T09:46:47;19.20;1.00
23267;DHT22;11802;53.160;8.214;2023-09-19T09:49:26;19.20;1.00
23267;DHT22;11802;53.160;8.214;2023-09-19T09:52:02;18.70;99.90
23267;DHT22;11802;53.160;8.214;2023-09-19T09:55:04;18.70;99.90
23267;DHT22;11802;53.160;8.214;2023-09-19T09:57:31;18.50;1.00
23267;DHT22;11802;53.160;8.214;2023-09-19T09:59:58;18.40;1.00
23267;DHT22;11802;53.160;8.214;2023-09-19T10:02:28;18.70;1.00
23267;DHT22;11802;53.160;8.214;2023-09-19T10:04:58;18.70;1.00
23267;DHT22;11802;53.160;8.214;2023-09-19T10:07:32;18.60;1.00
23267;DHT22;11802;53.160;8.214;2023-09-19T10:10:02;18.80;1.00
23267;DHT22;11802;53.160;8.214;2023-09-19T10:12:48;19.10;99.90
23267;DHT22;11802;53.160;8.214;2023-09-19T10:15:19;19.40;99.90
23267;DHT22;11802;53.160;8.214;2023-09-19T10:17:50;19.70;1.00
23267;DHT22;11802;53.160;8.214;2023-09-19T10:20:21;20.20;99.90
23267;DHT22;11802;53.160;8.214;2023-09-19T10:23:00;20.20;1.00
23267;DHT22;11802;53.160;8.214;2023-09-19T10:25:27;20.70;1.00
23267;DHT22;11802;53.160;8.214;2023-09-19T10:28:00;21.10;1.00
23267;DHT22;11802;53.160;8.214;2023-09-19T10:30:29;21.40;99.90
23267;DHT22;11802;53.160;8.214;2023-09-19T10:33:03;21.50;99.90
23267;DHT22;11802;53.160;8.214;2023-09-19T10:35:32;21.30;99.90
23267;DHT22;11802;53.160;8.214;2023-09-19T10:38:00;20.90;99.90
23267;DHT22;11802;53.160;8.214;2023-09-19T10:40:29;20.70;99.90
23267;DHT22;11802;53.160;8.214;2023-09-19T10:43:04;20.80;99.90
23267;DHT22;11802;53.160;8.214;2023-09-19T10:45:34;20.80;99.90
23267;DHT22;11802;53.160;8.214;2023-09-19T10:48:01;20.90;99.90
23267;DHT22;11802;53.160;8.214;2023-09-19T10:50:36;21.00;99.90
23267;DHT22;11802;53.160;8.214;2023-09-19T10:53:07;21.00;99.90
23267;DHT22;11802;53.160;8.214;2023-09-19T10:55:36;21.40;99.90
23267;DHT22;11802;53.160;8.214;2023-09-19T10:58:02;21.10;99.90
23267;DHT22;11802;53.160;8.214;2023-09-19T11:00:56;21.00;99.90
23267;DHT22;11802;53.160;8.214;2023-09-19T11:03:23;20.90;99.90
23267;DHT22;11802;53.160;8.214;2023-09-19T11:06:07;21.00;99.90
23267;DHT22;11802;53.160;8.214;2023-09-19T11:09:01;21.20;99.90
23267;DHT22;11802;53.160;8.214;2023-09-19T11:14:38;21.10;99.90
23267;DHT22;11802;53.160;8.214;2023-09-19T11:23:17;21.10;99.90
23267;DHT22;11802;53.160;8.214;2023-09-19T11:25:43;21.10;36.30
23267;DHT22;11802;53.160;8.214;2023-09-19T11:30:51;21.30;48.00
23267;DHT22;11802;53.160;8.214;2023-09-19T11:33:32;21.40;12.00
23267;DHT22;11802;53.160;8.214;2023-09-19T11:43:51;21.10;43.60
23267;DHT22;11802;53.160;8.214;2023-09-19T11:46:20;21.20;72.30
23267;DHT22;11802;53.160;8.214;2023-09-19T11:48:50;21.30;21.70
23267;DHT22;11802;53.160;8.214;2023-09-19T11:51:20;21.30;67.90
23267;DHT22;11802;53.160;8.214;2023-09-19T11:53:58;21.30;89.70
23267;DHT22;11802;53.160;8.214;2023-09-19T11:56:28;20.80;5.40
23267;DHT22;11802;53.160;8.214;2023-09-19T11:58:55;20.90;39.60
23267;DHT22;11802;53.160;8.214;2023-09-19T12:01:50;21.10;1.00
23267;DHT22;11802;53.160;8.214;2023-09-19T12:04:17;21.20;11.60
23267;DHT22;11802;53.160;8.214;2023-09-19T12:06:56;21.20;36.60
23267;DHT22;11802;53.160;8.214;2023-09-19T12:09:22;21.40;1.00
23267;DHT22;11802;53.160;8.214;2023-09-19T12:11:50;21.50;5.80
23267;DHT22;11802;53.160;8.214;2023-09-19T12:14:23;21.60;1.00
23267;DHT22;11802;53.160;8.214;2023-09-19T12:16:54;21.10;1.00
23267;DHT22;11802;53.160;8.214;2023-09-19T12:19:21;21.20;1.00
23267;DHT22;11802;53.160;8.214;2023-09-19T12:21:55;21.30;1.00
23267;DHT22;11802;53.160;8.214;2023-09-19T12:24:22;21.30;1.00
23267;DHT22;11802;53.160;8.214;2023-09-19T12:26:47;21.30;1.00
23267;DHT22;11802;53.160;8.214;2023-09-19T12:29:17;21.00;1.00
23267;DHT22;11802;53.160;8.214;2023-09-19T12:31:51;21.00;1.00
23267;DHT22;11802;53.160;8.214;2023-09-19T12:34:21;20.90;24.90
23267;DHT22;11802;53.160;8.214;2023-09-19T12:36:48;21.00;60.80
23267;DHT22;11802;53.160;8.214;2023-09-19T12:39:24;21.20;61.50
23267;DHT22;11802;53.160;8.214;2023-09-19T12:41:51;21.60;19.30
23267;DHT22;11802;53.160;8.214;2023-09-19T12:44:19;21.50;1.00
23267;DHT22;11802;53.160;8.214;2023-09-19T12:46:44;21.30;1.00
23267;DHT22;11802;53.160;8.214;2023-09-19T12:51:48;20.90;29.80
23267;DHT22;11802;53.160;8.214;2023-09-19T12:54:15;20.80;9.40
23267;DHT22;11802;53.160;8.214;2023-09-19T12:56:45;20.70;36.40
23267;DHT22;11802;53.160;8.214;2023-09-19T12:59:14;20.60;97.30
23267;DHT22;11802;53.160;8.214;2023-09-19T13:01:42;20.70;99.90
23267;DHT22;11802;53.160;8.214;2023-09-19T13:04:20;20.80;96.10
23267;DHT22;11802;53.160;8.214;2023-09-19T13:06:51;20.70;94.50
23267;DHT22;11802;53.160;8.214;2023-09-19T13:09:21;20.80;59.00
23267;DHT22;11802;53.160;8.214;2023-09-19T13:11:48;20.90;90.60
23267;DHT22;11802;53.160;8.214;2023-09-19T13:14:16;20.90;99.90
23267;DHT22;11802;53.160;8.214;2023-09-19T13:17:07;20.80;99.90
23267;DHT22;11802;53.160;8.214;2023-09-19T13:19:45;20.80;99.90
23267;DHT22;11802;53.160;8.214;2023-09-19T13:22:37;20.90;48.40
23267;DHT22;11802;53.160;8.214;2023-09-19T13:25:20;20.80;27.10
23267;DHT22;11802;53.160;8.214;2023-09-19T13:27:48;20.90;47.70
23267;DHT22;11802;53.160;8.214;2023-09-19T13:30:16;21.00;28.10
23267;DHT22;11802;53.160;8.214;2023-09-19T13:32:42;20.90;15.60
23267;DHT22;11802;53.160;8.214;2023-09-19T13:35:09;20.90;15.30
23267;DHT22;11802;53.160;8.214;2023-09-19T13:37:35;20.90;11.90
23267;DHT22;11802;53.160;8.214;2023-09-19T13:40:07;21.00;32.60
23267;DHT22;11802;53.160;8.214;2023-09-19T13:42:33;20.90;1.00
23267;DHT22;11802;53.160;8.214;2023-09-19T13:44:59;20.80;1.00
23267;DHT22;11802;53.160;8.214;2023-09-19T13:47:24;20.70;1.00
23267;DHT22;11802;53.160;8.214;2023-09-19T13:49:52;20.90;35.10
23267;DHT22;11802;53.160;8.214;2023-09-19T13:52:21;20.70;23.80
23267;DHT22;11802;53.160;8.214;2023-09-19T13:54:51;20.80;33.90
23267;DHT22;11802;53.160;8.214;2023-09-19T13:57:18;20.70;99.90
23267;DHT22;11802;53.160;8.214;2023-09-19T13:59:43;20.90;73.70
23267;DHT22;11802;53.160;8.214;2023-09-19T14:02:10;20.70;99.90
23267;DHT22;11802;53.160;8.214;2023-09-19T14:04:35;20.80;99.90
23267;DHT22;11802;53.160;8.214;2023-09-19T14:07:01;20.60;99.90
23267;DHT22;11802;53.160;8.214;2023-09-19T14:09:27;20.30;99.90
23267;DHT22;11802;53.160;8.214;2023-09-19T14:11:52;20.50;99.90
23267;DHT22;11802;53.160;8.214;2023-09-19T14:14:21;20.30;99.90
23267;DHT22;11802;53.160;8.214;2023-09-19T14:16:47;20.20;99.90
23267;DHT22;11802;53.160;8.214;2023-09-19T14:19:13;20.00;99.90
23267;DHT22;11802;53.160;8.214;2023-09-19T14:21:41;20.00;99.90
23267;DHT22;11802;53.160;8.214;2023-09-19T14:24:07;20.00;99.90
23267;DHT22;11802;53.160;8.214;2023-09-19T14:26:37;20.00;99.90
23267;DHT22;11802;53.160;8.214;2023-09-19T14:29:02;20.10;99.90
23267;DHT22;11802;53.160;8.214;2023-09-19T14:31:28;20.10;1.00
23267;DHT22;11802;53.160;8.214;2023-09-19T14:33:54;20.10;1.00
23267;DHT22;11802;53.160;8.214;2023-09-19T14:36:21;20.00;1.00
23267;DHT22;11802;53.160;8.214;2023-09-19T14:38:47;20.00;1.00
23267;DHT22;11802;53.160;8.214;2023-09-19T14:41:12;20.00;1.00
23267;DHT22;11802;53.160;8.214;2023-09-19T14:43:38;20.00;1.00
23267;DHT22;11802;53.160;8.214;2023-09-19T14:46:07;19.80;1.00
23267;DHT22;11802;53.160;8.214;2023-09-19T14:48:33;19.80;1.00
23267;DHT22;11802;53.160;8.214;2023-09-19T14:51:06;19.60;1.00
23267;DHT22;11802;53.160;8.214;2023-09-19T14:53:32;19.50;93.00
23267;DHT22;11802;53.160;8.214;2023-09-19T14:56:00;19.50;34.30
23267;DHT22;11802;53.160;8.214;2023-09-19T14:58:28;19.50;99.90
23267;DHT22;11802;53.160;8.214;2023-09-19T15:01:05;19.50;99.90
23267;DHT22;11802;53.160;8.214;2023-09-19T15:03:34;19.40;99.90
23267;DHT22;11802;53.160;8.214;2023-09-19T15:06:05;19.40;99.90
23267;DHT22;11802;53.160;8.214;2023-09-19T15:08:31;19.40;99.90
23267;DHT22;11802;53.160;8.214;2023-09-19T15:10:59;19.50;99.90
23267;DHT22;11802;53.160;8.214;2023-09-19T15:13:29;19.50;1.00
23267;DHT22;11802;53.160;8.214;2023-09-19T15:15:59;19.60;99.90
23267;DHT22;11802;53.160;8.214;2023-09-19T15:18:25;19.70;83.50
23267;DHT22;11802;53.160;8.214;2023-09-19T15:20:50;19.80;99.90
23267;DHT22;11802;53.160;8.214;2023-09-19T15:23:16;20.00;1.00
23267;DHT22;11802;53.160;8.214;2023-09-19T15:25:51;20.00;1.00
23267;DHT22;11802;53.160;8.214;2023-09-19T15:28:17;19.90;99.90
23267;DHT22;11802;53.160;8.214;2023-09-19T15:30:43;19.70;1.00
23267;DHT22;11802;53.160;8.214;2023-09-19T15:33:08;19.70;1.00
23267;DHT22;11802;53.160;8.214;2023-09-19T15:35:34;19.60;93.30
23267;DHT22;11802;53.160;8.214;2023-09-19T15:38:01;19.60;5.80
23267;DHT22;11802;53.160;8.214;2023-09-19T15:40:27;19.60;99.90
23267;DHT22;11802;53.160;8.214;2023-09-19T15:42:54;19.50;99.90
23267;DHT22;11802;53.160;8.214;2023-09-19T15:45:20;19.40;99.90
23267;DHT22;11802;53.160;8.214;2023-09-19T15:47:46;19.50;99.90
23267;DHT22;11802;53.160;8.214;2023-09-19T15:50:12;19.40;99.90
23267;DHT22;11802;53.160;8.214;2023-09-19T15:52:44;19.40;99.90
23267;DHT22;11802;53.160;8.214;2023-09-19T15:55:10;19.40;99.90
23267;DHT22;11802;53.160;8.214;2023-09-19T15:57:37;19.40;99.90
23267;DHT22;11802;53.160;8.214;2023-09-19T16:00:04;19.40;1.00
23267;DHT22;11802;53.160;8.214;2023-09-19T16:02:35;19.40;99.90
23267;DHT22;11802;53.160;8.214;2023-09-19T16:05:01;19.40;99.90
23267;DHT22;11802;53.160;8.214;2023-09-19T16:07:29;19.40;99.90
23267;DHT22;11802;53.160;8.214;2023-09-19T16:09:55;19.40;99.90
23267;DHT22;11802;53.160;8.214;2023-09-19T16:12:20;19.40;99.90
23267;DHT22;11802;53.160;8.214;2023-09-19T16:14:46;19.40;99.90
23267;DHT22;11802;53.160;8.214;2023-09-19T16:17:11;19.30;1.00
23267;DHT22;11802;53.160;8.214;2023-09-19T16:19:37;19.30;99.90
23267;DHT22;11802;53.160;8.214;2023-09-19T16:22:02;19.20;1.00